INFORMACIÓN METAR y TAF
METAR FOR LPMA
ADDS - METARS form results

(1551 UTC 28 November 2022)
Data provider http://aviationweather.gov/metar/data/
 
METAR text: LPMA 281530Z 03009KT 360V060 9999 SCT013 SCT033 21/15 Q1023
Conditions at: LPMA (FUNCHAL/MADEIRA , PT) observed 1530 UTC 28 November 2022
Temperature: 21.0°C (70°F)
Dewpoint: 15.0°C (59°F) [RH = 69%]
Pressure (altimeter): 30.21 inches Hg (1023.0 mb)
Winds: from the NNE (30 degrees) at 10 MPH (9 knots; 4.6 m/s)
Visibility: 6 or more miles (10+ km)
Ceiling: at least 12,000 feet AGL
Clouds: scattered clouds at 1300 feet AGL
scattered clouds at 3300 feet AGL
Weather: no significant weather observed at this time

METAR text: LPMA 281500Z 03011KT 350V070 9999 SCT014 SCT030 21/16 Q1024
Conditions at: LPMA (FUNCHAL/MADEIRA , PT) observed 1500 UTC 28 November 2022
Temperature: 21.0°C (70°F)
Dewpoint: 16.0°C (61°F) [RH = 73%]
Pressure (altimeter): 30.24 inches Hg (1024.0 mb)
Winds: from the NNE (30 degrees) at 13 MPH (11 knots; 5.7 m/s)
Visibility: 6 or more miles (10+ km)
Ceiling: at least 12,000 feet AGL
Clouds: scattered clouds at 1400 feet AGL
scattered clouds at 3000 feet AGL
Weather: no significant weather observed at this time

Forecast for: LPMA (FUNCHAL/MADEIRA , PT)
Text: TAF LPMA 281100Z 2812/2912 03013KT 9999 SCT015
Forecast period: 1200 UTC 28 November 2022 to 1200 UTC 29 November 2022
Forecast type: FROM: standard forecast or significant change
Winds: from the NNE (30 degrees) at 15 MPH (13 knots; 6.7 m/s)
Visibility: 6 or more miles (10+ km)
Ceiling: at least 12,000 feet AGL
Clouds: scattered clouds at 1500 feet AGL
Weather: no significant weather forecast for this period
Text: TEMPO 2812/2908 BKN015
Forecast period: 1200 UTC 28 November 2022 to 0800 UTC 29 November 2022
Forecast type: TEMPORARY: The following changes expected for less than half the time period
Visibility: missing
Ceiling: 1500 feet AGL
Clouds: broken clouds at 1500 feet AGL
Weather: no significant weather forecast for this period

 MAPA DE AEROPUERTO

 INFORMACIÓN DE PISTA
Pista 05 Longitud 9110 ft Ancho 148 ft
Elevación 147 ft Umbral desplazado 480 ft Rumbo de pista 45
Pista 23 Longitud 9110 ft Ancho 148 ft
Elevación 192 ft Umbral desplazado 490 ft Rumbo de pista 225

 FRECUANCIAS DEL AEROPUERTO
Tipo APP Nombre APP Frecuencia 119.2 MHZ
Tipo TWR Nombre TWR Frecuencia 118.35 MHZ

 RADIO AYUDAS DEL AEROPUERTO
Tipo VOR-DME Nombre Madeira Frecuencia 112200 KHZ
Tipo NDB Nombre Madeira Frecuencia 318 KHZ




Powered by Virtual Airlines Manager